Time;durP1;ratioP1;P1;durP2;ratioP2;P2;SDS_P1;SDS_P2;PMS_P1;PMS_P2;Temp;Humidity;BMP_temperature;BMP_pressure;BME280_temperature;BME280_humidity;BME280_pressure;Samples;Min_cycle;Max_cycle;Signal;HPM_P1;HPM_P2
2021/05/07 00:00:42;;;;;;;;;;;;;;;;;;7358331;40;1131;-11
2021/05/07 00:06:05;;;;;;;;;;;;;;;;;;7358555;40;1886;-12
2021/05/07 00:11:26;;;;;;;;;;;;;;;;;;7357538;40;1646;-13
2021/05/07 00:16:46;;;;;;;;;;;;;;;;;;7358691;40;1148;-13
2021/05/07 00:22:07;;;;;;;;;;;;;;;;;;7356752;40;1057;-12
2021/05/07 00:27:27;;;;;;;;;;;;;;;;;;7358591;40;1876;-12
2021/05/07 00:32:48;;;;;;;;;;;;;;;;;;7338050;40;1079;-12
2021/05/07 00:38:08;;;;;;;;;;;;;;;;;;7343657;40;1161;-14
2021/05/07 00:43:28;;;;;;;;;;;;;;;;;;7357863;40;1900;-12
2021/05/07 00:48:49;;;;;;;;;;;;;;;;;;7358351;40;1240;-11
2021/05/07 00:54:09;;;;;;;;;;;;;;;;;;7349461;40;1305;-12
2021/05/07 00:59:31;;;;;;;;;;;;;;;;;;7364889;40;1198;-14
2021/05/07 01:04:52;;;;;;;;;;;;;;;;;;7364044;40;1874;-11
2021/05/07 01:10:14;;;;;;;;;;;;;;;;;;7356841;40;1233;-12
2021/05/07 01:15:34;;;;;;;;;;;;;;;;;;7356306;40;1324;-11
2021/05/07 01:20:55;;;;;;;;;;;;;;;;;;7363857;40;1703;-13
2021/05/07 01:26:15;;;;;;;;;;;;;;;;;;7363843;40;1873;-12
2021/05/07 01:31:35;;;;;;;;;;;;;;;;;;7363387;40;985;-12
2021/05/07 01:36:56;;;;;;;;;;;;;;;;;;7364113;40;1325;-12
2021/05/07 01:42:17;;;;;;;;;;;;;;;;;;7356020;40;1057;-12
2021/05/07 01:47:41;;;;;;;;;;;;;;;;;;7362670;40;1936;-19
2021/05/07 01:53:02;;;;;;;;;;;;;;;;;;7363865;40;1029;-13
2021/05/07 01:58:23;;;;;;;;;;;;;;;;;;7363124;40;1075;-12
2021/05/07 02:03:46;;;;;;;;;;;;;;;;;;7363363;40;1987;-13
2021/05/07 02:09:12;;;;;;;;;;;;;;;;;;7353164;40;1142;-13
2021/05/07 02:14:32;;;;;;;;;;;;;;;;;;7360227;40;1012;-13
2021/05/07 02:19:53;;;;;;;;;;;;;;;;;;7360145;40;1014;-12
2021/05/07 02:25:14;;;;;;;;;;;;;;;;;;7359091;40;1914;-13
2021/05/07 02:30:34;;;;;;;;;;;;;;;;;;7359556;40;1046;-12
2021/05/07 02:35:58;;;;;;;;;;;;;;;;;;7360028;40;1059;-12
2021/05/07 02:41:20;;;;;;;;;;;;;;;;;;7345390;40;1254;-12
2021/05/07 02:46:40;;;;;;;;;;;;;;;;;;7339093;40;1944;-13
2021/05/07 02:52:02;;;;;;;;;;;;;;;;;;7339439;40;1134;-13
2021/05/07 02:57:23;;;;;;;;;;;;;;;;;;7338916;40;1201;-12
2021/05/07 03:02:44;;;;;;;;;;;;;;;;;;7339231;40;1305;-13
2021/05/07 03:08:04;;;;;;;;;;;;;;;;;;7339029;40;1874;-12
2021/05/07 03:13:24;;;;;;;;;;;;;;;;;;7338207;40;1199;-12
2021/05/07 03:18:45;;;;;;;;;;;;;;;;;;7337829;40;1133;-13
2021/05/07 03:24:05;;;;;;;;;;;;;;;;;;7338673;40;1874;-12
2021/05/07 03:29:27;;;;;;;;;;;;;;;;;;7338686;40;1043;-13
2021/05/07 03:34:49;;;;;;;;;;;;;;;;;;7338400;40;1073;-12
2021/05/07 03:40:10;;;;;;;;;;;;;;;;;;7352292;40;1542;-12
2021/05/07 03:45:30;;;;;;;;;;;;;;;;;;7358654;40;1929;-13
2021/05/07 03:50:52;;;;;;;;;;;;;;;;;;7351149;40;1101;-14
2021/05/07 03:56:12;;;;;;;;;;;;;;;;;;7358581;40;1611;-13
2021/05/07 04:01:33;;;;;;;;;;;;;;;;;;7358570;40;1323;-13
2021/05/07 04:06:53;;;;;;;;;;;;;;;;;;7358370;40;1932;-13
2021/05/07 04:17:55;;;;;;;;;;;;;;;;;;7358250;40;1041;-13
2021/05/07 04:23:16;;;;;;;;;;;;;;;;;;7358321;40;1021;-15
2021/05/07 04:28:36;;;;;;;;;;;;;;;;;;7358721;40;1862;-14
2021/05/07 04:34:20;;;;;;;;;;;;;;;;;;7337941;40;1050;-14
2021/05/07 04:39:40;;;;;;;;;;;;;;;;;;7349382;40;1454;-14
2021/05/07 04:45:01;;;;;;;;;;;;;;;;;;7349562;40;1933;-13
2021/05/07 04:50:22;;;;;;;;;;;;;;;;;;7358180;40;1068;-15
2021/05/07 04:55:43;;;;;;;;;;;;;;;;;;7357972;40;1320;-14
2021/05/07 05:01:03;;;;;;;;;;;;;;;;;;7349649;40;1576;-14
2021/05/07 05:06:24;;;;;;;;;;;;;;;;;;7356759;40;1879;-13
2021/05/07 05:11:44;;;;;;;;;;;;;;;;;;7337325;40;1092;-13
2021/05/07 05:17:04;;;;;;;;;;;;;;;;;;7354950;40;1110;-13
2021/05/07 05:22:25;;;;;;;;;;;;;;;;;;7357481;40;1057;-15
2021/05/07 05:27:46;;;;;;;;;;;;;;;;;;7357090;40;1943;-14
2021/05/07 05:33:06;;;;;;;;;;;;;;;;;;7357394;40;1026;-14
2021/05/07 05:38:27;;;;;;;;;;;;;;;;;;7357420;40;1168;-14
2021/05/07 05:43:48;;;;;;;;;;;;;;;;;;7349822;40;1113;-13
2021/05/07 05:49:08;;;;;;;;;;;;;;;;;;7360043;40;2059;-13
2021/05/07 05:54:29;;;;;;;;;;;;;;;;;;7365694;40;1092;-14
2021/05/07 05:59:50;;;;;;;;;;;;;;;;;;7360031;40;1202;-14
2021/05/07 06:05:11;;;;;;;;;;;;;;;;;;7357570;40;2201;-15
2021/05/07 06:10:32;;;;;;;;;;;;;;;;;;7363273;40;1260;-13
2021/05/07 06:15:52;;;;;;;;;;;;;;;;;;7357098;40;940;-14
2021/05/07 06:21:13;;;;;;;;;;;;;;;;;;7096115;40;10000049;-13
2021/05/07 06:26:33;;;;;;;;;;;;;;;;;;7336723;40;1874;-14
2021/05/07 06:31:54;;;;;;;;;;;;;;;;;;7336958;40;994;-14
2021/05/07 06:37:14;;;;;;;;;;;;;;;;;;7338632;40;1169;-13
2021/05/07 06:42:36;;;;;;;;;;;;;;;;;;7356619;40;1140;-14
2021/05/07 06:47:56;;;;;;;;;;;;;;;;;;7356788;40;1944;-15
2021/05/07 06:53:19;;;;;;;;;;;;;;;;;;7356681;40;1186;-14
2021/05/07 06:58:40;;;;;;;;;;;;;;;;;;7347827;40;1198;-14
2021/05/07 07:04:00;;;;;;;;;;;;;;;;;;7355445;40;1005;-14
2021/05/07 07:09:22;;;;;;;;;;;;;;;;;;7356553;40;1005;-15
2021/05/07 07:14:45;;;;;;;;;;;;;;;;;;7358610;40;1052;-14
2021/05/07 07:20:05;;;;;;;;;;;;;;;;;;7358953;40;1040;-13
2021/05/07 07:25:26;;;;;;;;;;;;;;;;;;7359018;40;1874;-14
2021/05/07 07:30:47;;;;;;;;;;;;;;;;;;7358377;40;1691;-14
2021/05/07 07:36:07;;;;;;;;;;;;;;;;;;7359028;40;988;-13
2021/05/07 07:41:28;;;;;;;;;;;;;;;;;;7359023;40;1214;-13
2021/05/07 07:46:49;;;;;;;;;;;;;;;;;;7358870;40;1871;-14
2021/05/07 07:52:09;;;;;;;;;;;;;;;;;;7358741;40;968;-14
2021/05/07 07:57:30;;;;;;;;;;;;;;;;;;7358749;40;1039;-13
2021/05/07 08:02:50;;;;;;;;;;;;;;;;;;7359083;40;1017;-13
2021/05/07 08:08:11;;;;;;;;;;;;;;;;;;7349540;40;1945;-13
2021/05/07 08:13:32;;;;;;;;;;;;;;;;;;7358310;40;1390;-13
2021/05/07 08:18:53;;;;;;;;;;;;;;;;;;7343025;40;969;-13
2021/05/07 08:24:14;;;;;;;;;;;;;;;;;;7343111;40;1063;-14
2021/05/07 08:29:34;;;;;;;;;;;;;;;;;;7358420;40;1001;-13
2021/05/07 08:34:54;;;;;;;;;;;;;;;;;;7357775;40;1480;-13
2021/05/07 08:40:16;;;;;;;;;;;;;;;;;;7358099;40;1192;-14
2021/05/07 08:45:37;;;;;;;;;;;;;;;;;;7342255;40;1940;-14
2021/05/07 08:51:02;;;;;;;;;;;;;;;;;;7357951;40;1075;-12
2021/05/07 08:56:23;;;;;;;;;;;;;;;;;;7342167;40;1034;-11
2021/05/07 09:01:45;;;;;;;;;;;;;;;;;;7357556;40;1940;-13
2021/05/07 09:07:12;;;;;;;;;;;;;;;;;;7357522;40;1936;-13
2021/05/07 09:12:34;;;;;;;;;;;;;;;;;;7357286;40;1087;-12
2021/05/07 09:18:01;;;;;;;;;;;;;;;;;;7358975;40;1137;-13
2021/05/07 09:23:22;;;;;;;;;;;;;;;;;;7338427;40;1058;-12
2021/05/07 09:28:53;;;;;;;;;;;;;;;;;;7338789;40;1874;-13
2021/05/07 09:34:13;;;;;;;;;;;;;;;;;;7339967;40;1023;-12
2021/05/07 09:39:36;;;;;;;;;;;;;;;;;;7351511;40;1172;-12
2021/05/07 09:44:56;;;;;;;;;;;;;;;;;;7359980;40;2030;-13
2021/05/07 09:50:19;;;;;;;;;;;;;;;;;;7359786;40;1022;-13
2021/05/07 09:55:40;;;;;;;;;;;;;;;;;;7360116;40;1161;-20
2021/05/07 10:01:01;;;;;;;;;;;;;;;;;;7359907;40;1189;-16
2021/05/07 10:06:22;;;;;;;;;;;;;;;;;;7351768;40;1926;-13
2021/05/07 10:11:59;;;;;;;;;;;;;;;;;;7359434;40;1302;-13
2021/05/07 10:17:19;;;;;;;;;;;;;;;;;;7359328;40;1033;-13
2021/05/07 10:22:41;;;;;;;;;;;;;;;;;;7359474;40;1005;-13
2021/05/07 10:28:01;;;;;;;;;;;;;;;;;;7359107;40;1870;-13
2021/05/07 10:33:22;;;;;;;;;;;;;;;;;;7359298;40;1049;-13
2021/05/07 10:38:49;;;;;;;;;;;;;;;;;;7359514;40;1184;-12
2021/05/07 10:44:10;;;;;;;;;;;;;;;;;;7357599;40;1090;-13
2021/05/07 10:49:34;;;;;;;;;;;;;;;;;;7358230;40;1925;-14
2021/05/07 10:55:02;;;;;;;;;;;;;;;;;;7358202;40;1461;-13
2021/05/07 11:00:32;;;;;;;;;;;;;;;;;;7359091;40;1293;-13
2021/05/07 11:05:52;;;;;;;;;;;;;;;;;;7358659;40;1963;-13
2021/05/07 11:11:12;;;;;;;;;;;;;;;;;;7357991;40;1427;-13
2021/05/07 11:16:37;;;;;;;;;;;;;;;;;;7356988;40;1240;-13
2021/05/07 11:22:03;;;;;;;;;;;;;;;;;;7358150;40;1115;-12
2021/05/07 11:27:26;;;;;;;;;;;;;;;;;;7356372;40;1943;-12
2021/05/07 11:32:47;;;;;;;;;;;;;;;;;;7358343;40;1116;-13
2021/05/07 11:38:07;;;;;;;;;;;;;;;;;;7355045;40;2081;-16
2021/05/07 11:43:28;;;;;;;;;;;;;;;;;;7353399;40;1500;-15
2021/05/07 11:48:50;;;;;;;;;;;;;;;;;;7353370;40;1882;-13
2021/05/07 11:54:12;;;;;;;;;;;;;;;;;;7339828;40;1062;-14
2021/05/07 11:59:33;;;;;;;;;;;;;;;;;;7355002;40;1126;-13
2021/05/07 12:04:56;;;;;;;;;;;;;;;;;;7353755;40;1554;-13
2021/05/07 12:10:21;;;;;;;;;;;;;;;;;;7354241;40;1298;-13
2021/05/07 12:15:47;;;;;;;;;;;;;;;;;;7354799;40;1039;-14
2021/05/07 12:21:08;;;;;;;;;;;;;;;;;;7351982;40;1198;-13
2021/05/07 12:26:29;;;;;;;;;;;;;;;;;;7354448;40;1936;-13
2021/05/07 12:31:59;;;;;;;;;;;;;;;;;;7354664;40;1072;-13
2021/05/07 12:37:20;;;;;;;;;;;;;;;;;;7364513;40;2538;-13
2021/05/07 12:42:40;;;;;;;;;;;;;;;;;;7354712;40;1194;-13
2021/05/07 12:48:01;;;;;;;;;;;;;;;;;;7354944;40;1936;-14
2021/05/07 12:53:22;;;;;;;;;;;;;;;;;;7355089;40;1434;-14
2021/05/07 12:58:42;;;;;;;;;;;;;;;;;;7357210;40;1198;-12
2021/05/07 13:04:05;;;;;;;;;;;;;;;;;;7357208;40;929;-13
2021/05/07 13:09:26;;;;;;;;;;;;;;;;;;7357012;40;1933;-19
2021/05/07 13:15:02;;;;;;;;;;;;;;;;;;7357243;40;1214;-19
2021/05/07 13:20:24;;;;;;;;;;;;;;;;;;7356879;40;1094;-15
2021/05/07 13:25:44;;;;;;;;;;;;;;;;;;7356938;40;1874;-14
2021/05/07 13:31:18;;;;;;;;;;;;;;;;;;7356287;40;1628;-14
2021/05/07 13:36:38;;;;;;;;;;;;;;;;;;7356585;40;1071;-14
2021/05/07 13:41:59;;;;;;;;;;;;;;;;;;7336316;40;1015;-16
2021/05/07 13:47:19;;;;;;;;;;;;;;;;;;7336325;40;1886;-17
2021/05/07 13:52:54;;;;;;;;;;;;;;;;;;7355889;40;1198;-15
2021/05/07 13:58:15;;;;;;;;;;;;;;;;;;7355798;40;1467;-15
2021/05/07 14:03:35;;;;;;;;;;;;;;;;;;7356535;40;1123;-16
2021/05/07 14:08:59;;;;;;;;;;;;;;;;;;7359394;40;1886;-16
2021/05/07 14:14:29;;;;;;;;;;;;;;;;;;7350949;40;1302;-16
2021/05/07 14:19:49;;;;;;;;;;;;;;;;;;7359386;40;1029;-16
2021/05/07 14:25:10;;;;;;;;;;;;;;;;;;7359147;40;1280;-16
2021/05/07 14:30:30;;;;;;;;;;;;;;;;;;7359365;40;997;-16
2021/05/07 14:35:53;;;;;;;;;;;;;;;;;;7350285;40;1139;-16
2021/05/07 14:41:13;;;;;;;;;;;;;;;;;;7358701;40;1239;-15
2021/05/07 14:46:34;;;;;;;;;;;;;;;;;;7358458;40;1871;-15
2021/05/07 14:51:54;;;;;;;;;;;;;;;;;;7358492;40;1186;-16
2021/05/07 14:57:14;;;;;;;;;;;;;;;;;;7357707;40;1237;-15
2021/05/07 15:02:36;;;;;;;;;;;;;;;;;;7356894;40;1173;-16
2021/05/07 15:07:57;;;;;;;;;;;;;;;;;;7358307;40;1885;-17
2021/05/07 15:13:18;;;;;;;;;;;;;;;;;;7357413;40;1601;-17
2021/05/07 15:18:56;;;;;;;;;;;;;;;;;;6726894;40;10001009;-15
2021/05/07 15:24:16;;;;;;;;;;;;;;;;;;7358080;40;1107;-17
2021/05/07 15:29:36;;;;;;;;;;;;;;;;;;7357658;40;1912;-15
2021/05/07 15:34:59;;;;;;;;;;;;;;;;;;7342958;40;1044;-15
2021/05/07 15:40:20;;;;;;;;;;;;;;;;;;7358124;40;1172;-17
2021/05/07 15:45:44;;;;;;;;;;;;;;;;;;7357885;40;1870;-17
2021/05/07 15:51:04;;;;;;;;;;;;;;;;;;7357382;40;1410;-17
2021/05/07 15:56:28;;;;;;;;;;;;;;;;;;7357866;40;995;-17
2021/05/07 16:01:49;;;;;;;;;;;;;;;;;;7357035;40;1179;-16
2021/05/07 16:07:10;;;;;;;;;;;;;;;;;;7357891;40;1886;-16
2021/05/07 16:12:31;;;;;;;;;;;;;;;;;;7357421;40;1650;-14
2021/05/07 16:17:52;;;;;;;;;;;;;;;;;;7355053;40;1585;-16
2021/05/07 16:23:12;;;;;;;;;;;;;;;;;;7345721;40;2452;-17
2021/05/07 16:28:33;;;;;;;;;;;;;;;;;;7352732;40;1922;-15
2021/05/07 16:34:07;;;;;;;;;;;;;;;;;;7357497;40;1101;-15
2021/05/07 16:39:28;;;;;;;;;;;;;;;;;;7356784;40;2191;-14
2021/05/07 16:44:48;;;;;;;;;;;;;;;;;;6728401;40;10001017;-14
2021/05/07 16:50:10;;;;;;;;;;;;;;;;;;7354345;40;2062;-15
2021/05/07 16:55:31;;;;;;;;;;;;;;;;;;7355356;40;1127;-16
2021/05/07 17:00:51;;;;;;;;;;;;;;;;;;7088495;40;10001379;-16
2021/05/07 17:06:13;;;;;;;;;;;;;;;;;;7340819;40;1914;-15
2021/05/07 17:11:33;;;;;;;;;;;;;;;;;;7354062;40;1114;-16
2021/05/07 17:16:54;;;;;;;;;;;;;;;;;;7353840;40;941;-15
2021/05/07 17:22:15;;;;;;;;;;;;;;;;;;7352953;40;1173;-15
2021/05/07 17:27:35;;;;;;;;;;;;;;;;;;7352433;40;1929;-16
2021/05/07 17:32:57;;;;;;;;;;;;;;;;;;7353048;40;997;-15
2021/05/07 17:38:17;;;;;;;;;;;;;;;;;;7354408;40;1153;-16
2021/05/07 17:43:40;;;;;;;;;;;;;;;;;;7355954;40;1309;-15
2021/05/07 17:49:14;;;;;;;;;;;;;;;;;;7356796;40;1868;-15
2021/05/07 17:54:35;;;;;;;;;;;;;;;;;;7356140;40;1477;-15
2021/05/07 18:00:11;;;;;;;;;;;;;;;;;;7373732;40;2760;-14
2021/05/07 18:05:31;;;;;;;;;;;;;;;;;;7363798;40;2048;-15
2021/05/07 18:10:52;;;;;;;;;;;;;;;;;;7354674;40;1118;-16
2021/05/07 18:16:13;;;;;;;;;;;;;;;;;;7356423;40;1020;-14
2021/05/07 18:21:47;;;;;;;;;;;;;;;;;;7355644;40;1036;-17
2021/05/07 18:27:08;;;;;;;;;;;;;;;;;;7347553;40;1882;-14
2021/05/07 18:32:29;;;;;;;;;;;;;;;;;;7355499;40;1326;-14
2021/05/07 18:38:01;;;;;;;;;;;;;;;;;;7337238;40;1075;-14
2021/05/07 18:43:21;;;;;;;;;;;;;;;;;;7335560;40;1017;-14
2021/05/07 18:48:42;;;;;;;;;;;;;;;;;;7333627;40;1878;-14
2021/05/07 18:54:08;;;;;;;;;;;;;;;;;;7356326;40;1103;-14
2021/05/07 18:59:28;;;;;;;;;;;;;;;;;;7355752;40;2409;-15
2021/05/07 19:04:49;;;;;;;;;;;;;;;;;;7355428;40;1336;-14
2021/05/07 19:10:11;;;;;;;;;;;;;;;;;;7356024;40;1944;-16
2021/05/07 19:15:34;;;;;;;;;;;;;;;;;;7362386;40;1206;-15
2021/05/07 19:20:55;;;;;;;;;;;;;;;;;;7355868;40;1032;-15
2021/05/07 19:26:16;;;;;;;;;;;;;;;;;;7340348;40;1871;-16
2021/05/07 19:31:36;;;;;;;;;;;;;;;;;;7355982;40;1001;-15
2021/05/07 19:37:11;;;;;;;;;;;;;;;;;;7355907;40;1016;-16
2021/05/07 19:42:31;;;;;;;;;;;;;;;;;;7355354;40;1288;-16
2021/05/07 19:47:51;;;;;;;;;;;;;;;;;;7355754;40;1920;-16
2021/05/07 19:53:12;;;;;;;;;;;;;;;;;;7356016;40;1001;-16
2021/05/07 19:58:33;;;;;;;;;;;;;;;;;;7358045;40;2434;-16
2021/05/07 20:03:54;;;;;;;;;;;;;;;;;;7349237;40;1619;-16
2021/05/07 20:09:14;;;;;;;;;;;;;;;;;;7349373;40;1875;-15
2021/05/07 20:14:38;;;;;;;;;;;;;;;;;;7330532;40;2012;-17
2021/05/07 20:19:58;;;;;;;;;;;;;;;;;;6690388;40;10000813;-13
2021/05/07 20:25:19;;;;;;;;;;;;;;;;;;7326225;40;2025;-17
2021/05/07 20:30:39;;;;;;;;;;;;;;;;;;7334869;40;1870;-24
2021/05/07 20:36:14;;;;;;;;;;;;;;;;;;7335636;40;1136;-17
2021/05/07 20:41:35;;;;;;;;;;;;;;;;;;7318949;40;1211;-18
2021/05/07 20:46:56;;;;;;;;;;;;;;;;;;7327731;40;1875;-18
2021/05/07 20:52:17;;;;;;;;;;;;;;;;;;7335514;40;1040;-23
2021/05/07 20:57:37;;;;;;;;;;;;;;;;;;7332565;40;1520;-18
2021/05/07 21:03:04;;;;;;;;;;;;;;;;;;7336088;40;1326;-19
2021/05/07 21:08:25;;;;;;;;;;;;;;;;;;7336410;40;1927;-16
2021/05/07 21:13:46;;;;;;;;;;;;;;;;;;7298582;40;1315;-18
2021/05/07 21:19:06;;;;;;;;;;;;;;;;;;7317057;40;1580;-17
2021/05/07 21:24:27;;;;;;;;;;;;;;;;;;7318430;40;1459;-16
2021/05/07 21:29:47;;;;;;;;;;;;;;;;;;7318915;40;1894;-17
2021/05/07 21:35:09;;;;;;;;;;;;;;;;;;7320431;40;1185;-16
2021/05/07 21:40:29;;;;;;;;;;;;;;;;;;7320725;40;1595;-18
2021/05/07 21:45:50;;;;;;;;;;;;;;;;;;7322317;40;1105;-16
2021/05/07 21:51:10;;;;;;;;;;;;;;;;;;7319609;40;1276;-17
2021/05/07 21:56:32;;;;;;;;;;;;;;;;;;7319255;40;1460;-16
2021/05/07 22:01:53;;;;;;;;;;;;;;;;;;7320626;40;1046;-15
2021/05/07 22:07:13;;;;;;;;;;;;;;;;;;7319676;40;1875;-16
2021/05/07 22:12:34;;;;;;;;;;;;;;;;;;7330211;40;1123;-16
2021/05/07 22:18:09;;;;;;;;;;;;;;;;;;7339518;40;1308;-18
2021/05/07 22:23:29;;;;;;;;;;;;;;;;;;7337775;40;1418;-16
2021/05/07 22:28:50;;;;;;;;;;;;;;;;;;7337772;40;1963;-17
2021/05/07 22:34:10;;;;;;;;;;;;;;;;;;7338993;40;1124;-17
2021/05/07 22:39:31;;;;;;;;;;;;;;;;;;7339198;40;1161;-16
2021/05/07 22:44:51;;;;;;;;;;;;;;;;;;7339445;40;968;-16
2021/05/07 22:50:12;;;;;;;;;;;;;;;;;;7339421;40;1886;-16
2021/05/07 22:55:32;;;;;;;;;;;;;;;;;;7339358;40;1011;-15
2021/05/07 23:00:53;;;;;;;;;;;;;;;;;;7339233;40;1154;-15
2021/05/07 23:06:13;;;;;;;;;;;;;;;;;;7339046;40;1886;-16
2021/05/07 23:11:33;;;;;;;;;;;;;;;;;;7337506;40;2013;-14
2021/05/07 23:16:54;;;;;;;;;;;;;;;;;;7337273;40;1049;-15
2021/05/07 23:22:14;;;;;;;;;;;;;;;;;;7335950;40;1351;-16
2021/05/07 23:27:34;;;;;;;;;;;;;;;;;;7338933;40;1927;-15
2021/05/07 23:32:55;;;;;;;;;;;;;;;;;;7338730;40;1706;-17
2021/05/07 23:38:15;;;;;;;;;;;;;;;;;;7338418;40;1023;-14
2021/05/07 23:43:35;;;;;;;;;;;;;;;;;;7338146;40;1273;-16
2021/05/07 23:48:56;;;;;;;;;;;;;;;;;;7338490;40;1886;-15
2021/05/07 23:54:31;;;;;;;;;;;;;;;;;;7338675;40;1113;-15
2021/05/07 23:59:51;;;;;;;;;;;;;;;;;;7338176;40;1328;-14
